createdAt,value
2017-06-20T00:01:48.418Z,61.20
2017-06-20T00:04:15.903Z,61.10
2017-06-20T00:06:44.174Z,61.20
2017-06-20T00:09:12.410Z,60.90
2017-06-20T00:11:39.911Z,61.50
2017-06-20T00:14:08.150Z,61.80
2017-06-20T00:16:35.643Z,61.80
2017-06-20T00:19:03.114Z,62.20
2017-06-20T00:21:30.603Z,62.40
2017-06-20T00:23:58.082Z,62.60
2017-06-20T00:26:25.578Z,62.70
2017-06-20T00:28:53.054Z,63.50
2017-06-20T00:31:20.543Z,62.80
2017-06-20T00:33:48.018Z,62.80
2017-06-20T00:36:16.286Z,63.90
2017-06-20T00:38:43.772Z,63.70
2017-06-20T00:41:11.263Z,63.80
2017-06-20T00:43:38.733Z,64.30
2017-06-20T00:46:07.043Z,64.80
2017-06-20T00:48:34.554Z,65.40
2017-06-20T00:51:02.021Z,64.80
2017-06-20T00:53:29.510Z,64.60
2017-06-20T00:55:57.003Z,64.40
2017-06-20T00:58:24.506Z,65.00
2017-06-20T01:00:52.744Z,65.40
2017-06-20T01:03:20.238Z,65.40
2017-06-20T01:05:47.714Z,64.90
2017-06-20T01:08:15.210Z,65.00
2017-06-20T01:10:42.688Z,65.30
2017-06-20T01:13:10.958Z,65.10
2017-06-20T01:15:39.201Z,65.60
2017-06-20T01:18:06.691Z,65.20
2017-06-20T01:20:34.176Z,66.10
2017-06-20T01:23:01.671Z,66.20
2017-06-20T01:25:29.155Z,65.80
2017-06-20T01:27:57.395Z,66.50
2017-06-20T01:30:24.887Z,66.50
2017-06-20T01:32:53.130Z,66.60
2017-06-20T01:35:20.625Z,66.60
2017-06-20T01:37:48.102Z,66.30
2017-06-20T01:40:15.596Z,66.80
2017-06-20T01:42:43.084Z,67.00
2017-06-20T01:45:10.579Z,67.30
2017-06-20T01:47:38.057Z,66.90
2017-06-20T01:50:05.564Z,67.10
2017-06-20T01:52:33.046Z,66.60
2017-06-20T01:55:00.518Z,66.50
2017-06-20T01:57:28.010Z,66.30
2017-06-20T01:59:55.491Z,66.50
2017-06-20T02:02:22.990Z,66.50
2017-06-20T02:04:50.462Z,66.80
2017-06-20T02:07:17.957Z,66.80
2017-06-20T02:09:45.426Z,66.60
2017-06-20T02:12:12.923Z,66.70
2017-06-20T02:14:40.394Z,67.30
2017-06-20T02:17:07.874Z,67.30
2017-06-20T02:19:35.366Z,67.90
2017-06-20T02:22:02.838Z,67.80
2017-06-20T02:24:30.328Z,67.90
2017-06-20T02:26:57.806Z,68.10
2017-06-20T02:29:25.307Z,68.00
2017-06-20T02:31:53.551Z,68.50
2017-06-20T02:34:21.042Z,68.50
2017-06-20T02:36:48.518Z,68.40
2017-06-20T02:39:16.010Z,68.70
2017-06-20T02:41:43.486Z,69.20
2017-06-20T02:44:11.749Z,70.10
2017-06-20T02:46:39.226Z,69.20
2017-06-20T02:49:06.730Z,68.90
2017-06-20T02:51:34.206Z,69.50
2017-06-20T02:54:01.710Z,70.10
2017-06-20T02:56:29.182Z,69.80
2017-06-20T02:58:56.658Z,70.10
2017-06-20T03:01:24.150Z,70.40
2017-06-20T03:03:52.399Z,70.30
2017-06-20T03:06:19.893Z,70.30
2017-06-20T03:08:47.370Z,70.30
2017-06-20T03:11:14.871Z,70.40
2017-06-20T03:13:42.354Z,70.70
2017-06-20T03:16:09.861Z,71.00
2017-06-20T03:18:37.347Z,70.90
2017-06-20T03:21:05.611Z,70.80
2017-06-20T03:23:33.091Z,70.80
2017-06-20T03:26:00.566Z,71.00
2017-06-20T03:28:28.066Z,71.10
2017-06-20T03:30:55.538Z,71.10
2017-06-20T03:33:23.807Z,71.20
2017-06-20T03:35:52.054Z,71.40
2017-06-20T03:38:19.551Z,71.30
2017-06-20T03:40:47.027Z,71.20
2017-06-20T03:43:14.547Z,71.20
2017-06-20T03:45:42.796Z,71.50
2017-06-20T03:48:10.282Z,71.50
2017-06-20T03:50:38.570Z,71.80
2017-06-20T03:53:06.046Z,72.60
2017-06-20T03:55:33.539Z,71.40
2017-06-20T03:58:01.025Z,71.70
2017-06-20T04:00:28.523Z,71.80
2017-06-20T04:02:56.000Z,72.00
2017-06-20T04:05:23.496Z,71.60
2017-06-20T04:07:50.974Z,71.50
2017-06-20T04:10:18.472Z,71.60
2017-06-20T04:12:45.950Z,71.40
2017-06-20T04:15:13.456Z,71.50
2017-06-20T04:17:40.931Z,71.20
2017-06-20T04:20:08.404Z,70.80
2017-06-20T04:22:36.670Z,71.00
2017-06-20T04:25:04.147Z,71.00
2017-06-20T04:27:31.638Z,70.70
2017-06-20T04:29:59.129Z,70.50
2017-06-20T04:32:26.631Z,70.20
2017-06-20T04:34:54.118Z,70.90
2017-06-20T04:37:21.611Z,70.60
2017-06-20T04:39:49.856Z,69.80
2017-06-20T04:42:17.355Z,69.80
2017-06-20T04:44:44.830Z,69.80
2017-06-20T04:47:12.307Z,69.50
2017-06-20T04:49:39.855Z,69.10
2017-06-20T04:52:07.341Z,69.10
2017-06-20T04:54:34.842Z,68.90
2017-06-20T04:57:02.344Z,68.70
2017-06-20T04:59:29.834Z,68.40
2017-06-20T05:01:57.328Z,68.20
2017-06-20T05:04:24.829Z,67.90
2017-06-20T05:06:53.075Z,67.60
2017-06-20T05:09:20.572Z,67.50
2017-06-20T05:11:48.055Z,67.10
2017-06-20T05:14:15.775Z,66.80
2017-06-20T05:16:44.015Z,66.50
2017-06-20T05:19:11.489Z,66.30
2017-06-20T05:21:39.751Z,66.10
2017-06-20T05:24:07.229Z,66.10
2017-06-20T05:26:35.488Z,68.20
2017-06-20T05:29:03.743Z,69.10
2017-06-20T05:31:31.247Z,68.90
2017-06-20T05:33:58.724Z,65.10
2017-06-20T05:36:26.218Z,66.30
2017-06-20T05:38:53.693Z,64.70
2017-06-20T05:41:21.183Z,65.40
2017-06-20T05:43:48.663Z,65.00
2017-06-20T05:46:16.160Z,63.90
2017-06-20T05:48:43.636Z,62.20
2017-06-20T05:51:11.108Z,63.30
2017-06-20T05:53:38.608Z,63.40
2017-06-20T05:56:06.848Z,62.90
2017-06-20T05:58:34.339Z,62.80
2017-06-20T06:01:02.579Z,63.10
2017-06-20T06:03:30.076Z,63.10
2017-06-20T06:05:58.994Z,61.30
2017-06-20T06:08:26.506Z,61.30
2017-06-20T06:10:53.990Z,62.20
2017-06-20T06:13:21.480Z,62.30
2017-06-20T06:15:48.953Z,60.10
2017-06-20T06:18:16.444Z,58.10
2017-06-20T06:20:43.927Z,54.30
2017-06-20T06:23:11.430Z,50.20
2017-06-20T06:25:38.939Z,47.90
2017-06-20T06:28:06.518Z,46.40
2017-06-20T06:30:34.012Z,43.50
2017-06-20T06:33:01.487Z,41.30
2017-06-20T06:35:28.983Z,40.80
2017-06-20T06:37:56.458Z,41.20
2017-06-20T06:40:24.728Z,40.10
2017-06-20T06:42:52.198Z,40.10
2017-06-20T06:45:20.474Z,41.20
2017-06-20T06:47:48.716Z,42.00
2017-06-20T06:50:16.244Z,41.90
2017-06-20T06:52:43.719Z,43.10
2017-06-20T06:55:11.200Z,42.90
2017-06-20T06:57:39.459Z,40.00
2017-06-20T07:00:06.945Z,39.60
2017-06-20T07:02:34.450Z,38.10
2017-06-20T07:05:01.936Z,36.80
2017-06-20T07:07:30.195Z,33.90
2017-06-20T07:09:57.667Z,33.80
2017-06-20T07:12:25.167Z,32.50
2017-06-20T07:14:52.646Z,31.90
2017-06-20T07:17:20.151Z,32.90
2017-06-20T07:19:47.624Z,32.90
2017-06-20T07:22:15.096Z,34.30
2017-06-20T07:24:42.596Z,35.30
2017-06-20T07:27:10.839Z,30.50
2017-06-20T07:29:38.343Z,30.50
2017-06-20T07:32:05.824Z,29.50
2017-06-20T07:34:33.320Z,30.40
2017-06-20T07:37:00.795Z,33.60
2017-06-20T07:39:29.051Z,32.80
2017-06-20T07:41:57.320Z,31.20
2017-06-20T07:44:24.815Z,31.20
2017-06-20T07:46:52.299Z,31.50
2017-06-20T07:49:19.806Z,32.60
2017-06-20T07:51:47.278Z,32.00
2017-06-20T07:54:14.759Z,29.90
2017-06-20T07:56:42.252Z,28.50
2017-06-20T07:59:10.496Z,29.50
2017-06-20T08:01:37.987Z,29.10
2017-06-20T08:04:06.235Z,30.20
2017-06-20T08:06:33.727Z,30.10
2017-06-20T08:09:01.210Z,30.50
2017-06-20T08:11:28.716Z,29.10
2017-06-20T08:13:56.202Z,28.80
2017-06-20T08:16:23.708Z,28.40
2017-06-20T08:18:51.188Z,27.60
2017-06-20T08:21:25.096Z,25.90
2017-06-20T08:23:53.335Z,24.90
2017-06-20T08:26:20.811Z,24.80
2017-06-20T08:28:49.067Z,23.80
2017-06-20T08:31:16.542Z,23.80
2017-06-20T08:33:44.799Z,25.00
2017-06-20T08:36:12.283Z,25.00
2017-06-20T08:38:40.541Z,25.70
2017-06-20T08:41:08.786Z,25.90
2017-06-20T08:43:36.282Z,25.80
2017-06-20T08:46:03.775Z,25.20
2017-06-20T08:48:31.267Z,25.30
2017-06-20T08:50:58.746Z,24.70
2017-06-20T08:53:26.231Z,24.60
2017-06-20T08:55:53.723Z,26.30
2017-06-20T08:58:21.194Z,24.90
2017-06-20T09:00:49.460Z,24.40
2017-06-20T09:03:16.944Z,24.40
2017-06-20T09:05:44.439Z,23.40
2017-06-20T09:08:11.923Z,22.50
2017-06-20T09:10:39.420Z,23.20
2017-06-20T09:13:06.891Z,24.90
2017-06-20T09:15:34.387Z,24.50
2017-06-20T09:18:01.876Z,23.70
2017-06-20T09:20:29.381Z,23.60
2017-06-20T09:22:56.858Z,24.10
2017-06-20T09:25:25.118Z,22.80
2017-06-20T09:27:52.598Z,23.30
2017-06-20T09:30:20.842Z,22.20
2017-06-20T09:32:48.334Z,22.10
2017-06-20T09:35:15.815Z,22.10
2017-06-20T09:37:43.312Z,21.70
2017-06-20T09:40:11.590Z,21.60
2017-06-20T09:42:39.850Z,22.10
2017-06-20T09:45:07.327Z,22.10
2017-06-20T09:47:35.591Z,22.70
2017-06-20T09:50:03.841Z,23.50
2017-06-20T09:52:31.353Z,23.40
2017-06-20T09:54:58.832Z,23.20
2017-06-20T09:57:26.319Z,22.20
2017-06-20T09:59:53.815Z,23.00
2017-06-20T10:02:21.299Z,21.90
2017-06-20T10:04:48.799Z,21.40
2017-06-20T10:07:17.058Z,21.20
2017-06-20T10:09:44.553Z,21.20
2017-06-20T10:12:12.042Z,21.60
2017-06-20T10:14:39.540Z,21.70
2017-06-20T10:17:07.012Z,22.50
2017-06-20T10:19:34.506Z,21.90
2017-06-20T10:22:01.990Z,22.00
2017-06-20T10:24:29.470Z,21.90
2017-06-20T10:26:56.981Z,21.00
2017-06-20T10:29:24.452Z,20.40
2017-06-20T10:31:51.944Z,20.20
2017-06-20T10:34:19.426Z,20.40
2017-06-20T10:36:46.923Z,20.80
2017-06-20T10:39:15.167Z,20.60
2017-06-20T10:41:42.662Z,20.60
2017-06-20T10:44:10.155Z,20.30
2017-06-20T10:46:37.643Z,20.20
2017-06-20T10:49:05.119Z,21.30
2017-06-20T10:51:33.363Z,21.70
2017-06-20T10:54:00.859Z,21.70
2017-06-20T10:56:28.359Z,21.50
2017-06-20T10:58:55.850Z,22.60
2017-06-20T11:01:23.326Z,22.20
2017-06-20T11:03:50.827Z,21.50
2017-06-20T11:06:18.319Z,21.10
2017-06-20T11:08:46.574Z,19.70
2017-06-20T11:11:14.059Z,19.80
2017-06-20T11:13:42.323Z,20.90
2017-06-20T11:16:10.595Z,21.10
2017-06-20T11:18:38.875Z,21.70
2017-06-20T11:21:07.111Z,21.50
2017-06-20T11:23:34.587Z,21.50
2017-06-20T11:26:02.853Z,23.70
2017-06-20T11:28:30.328Z,23.30
2017-06-20T11:30:58.591Z,21.60
2017-06-20T11:33:26.840Z,22.50
2017-06-20T11:35:54.335Z,22.50
2017-06-20T11:38:21.808Z,22.90
2017-06-20T11:40:49.307Z,22.70
2017-06-20T11:43:16.791Z,23.50
2017-06-20T11:45:45.064Z,23.20
2017-06-20T11:48:13.299Z,23.10
2017-06-20T11:50:40.794Z,23.10
2017-06-20T11:53:09.030Z,24.00
2017-06-20T11:55:36.511Z,24.00
2017-06-20T11:58:04.770Z,24.50
2017-06-20T12:00:32.244Z,24.40
2017-06-20T12:02:59.735Z,25.10
2017-06-20T12:05:27.206Z,26.00
2017-06-20T12:07:54.699Z,26.30
2017-06-20T12:10:22.943Z,26.90
2017-06-20T12:12:50.439Z,26.80
2017-06-20T12:15:18.690Z,25.80
2017-06-20T12:17:46.199Z,25.80
2017-06-20T12:20:13.683Z,25.10
2017-06-20T12:22:41.159Z,24.70
2017-06-20T12:25:08.659Z,24.30
2017-06-20T12:27:36.144Z,23.90
2017-06-20T12:30:03.653Z,24.10
2017-06-20T12:32:31.136Z,24.00
2017-06-20T12:34:58.644Z,23.90
2017-06-20T12:37:26.879Z,24.40
2017-06-20T12:39:54.379Z,24.30
2017-06-20T12:42:22.830Z,25.00
2017-06-20T12:44:50.339Z,24.90
2017-06-20T12:47:17.811Z,25.70
2017-06-20T12:49:45.307Z,25.60
2017-06-20T12:52:13.567Z,25.20
2017-06-20T12:54:41.044Z,25.20
2017-06-20T12:57:09.300Z,25.60
2017-06-20T12:59:36.776Z,25.60
2017-06-20T13:02:05.034Z,25.10
2017-06-20T13:04:33.271Z,25.70
2017-06-20T13:07:00.766Z,25.20
2017-06-20T13:09:28.247Z,25.50
2017-06-20T13:11:55.743Z,25.20
2017-06-20T13:14:23.221Z,24.90
2017-06-20T13:16:50.716Z,25.10
2017-06-20T13:19:18.191Z,24.80
2017-06-20T13:21:45.668Z,24.80
2017-06-20T13:24:13.166Z,25.40
2017-06-20T13:26:40.635Z,26.60
2017-06-20T13:29:08.131Z,26.70
2017-06-20T13:31:35.607Z,25.30
2017-06-20T13:34:03.863Z,26.20
2017-06-20T13:36:31.353Z,26.20
2017-06-20T13:38:58.844Z,26.80
2017-06-20T13:41:26.330Z,26.50
2017-06-20T13:43:53.823Z,25.80
2017-06-20T13:46:21.300Z,25.50
2017-06-20T13:48:48.791Z,25.40
2017-06-20T13:51:16.279Z,25.50
2017-06-20T13:53:43.767Z,25.40
2017-06-20T13:56:11.263Z,24.50
2017-06-20T13:58:38.738Z,24.40
2017-06-20T14:01:06.999Z,25.30
2017-06-20T14:03:34.471Z,25.30
2017-06-20T14:06:01.958Z,25.10
2017-06-20T14:08:29.427Z,25.30
2017-06-20T14:10:56.917Z,25.80
2017-06-20T14:13:25.160Z,25.90
2017-06-20T14:15:52.655Z,25.90
2017-06-20T14:18:20.123Z,25.90
2017-06-20T14:20:47.639Z,26.60
2017-06-20T14:23:15.119Z,26.00
2017-06-20T14:25:42.595Z,25.80
2017-06-20T14:28:10.091Z,25.90
2017-06-20T14:30:37.571Z,25.70
2017-06-20T14:33:05.071Z,25.90
2017-06-20T14:35:32.549Z,25.90
2017-06-20T14:38:00.034Z,26.50
2017-06-20T14:40:27.503Z,26.80
2017-06-20T14:42:55.007Z,27.00
2017-06-20T14:45:22.486Z,27.00
2017-06-20T14:47:49.963Z,27.10
2017-06-20T14:50:18.228Z,26.70
2017-06-20T14:52:45.702Z,26.60
2017-06-20T14:55:13.192Z,26.50
2017-06-20T14:57:40.666Z,27.00
2017-06-20T15:00:08.164Z,26.50
2017-06-20T15:02:35.641Z,27.50
2017-06-20T15:05:03.139Z,27.70
2017-06-20T15:07:30.610Z,27.70
2017-06-20T15:09:58.867Z,28.30
2017-06-20T15:12:26.343Z,28.30
2017-06-20T15:14:54.600Z,28.60
2017-06-20T15:17:22.074Z,28.60
2017-06-20T15:19:50.334Z,28.60
2017-06-20T15:22:18.575Z,28.60
2017-06-20T15:24:46.054Z,28.60
2017-06-20T15:27:13.560Z,29.00
2017-06-20T15:29:41.043Z,29.50
2017-06-20T15:32:08.538Z,30.00
2017-06-20T15:34:36.787Z,30.30
2017-06-20T15:37:04.275Z,30.20
2017-06-20T15:39:31.754Z,30.40
2017-06-20T15:41:59.251Z,30.20
2017-06-20T15:44:26.729Z,30.30
2017-06-20T15:46:54.982Z,30.40
2017-06-20T15:49:22.454Z,30.40
2017-06-20T15:51:50.710Z,30.10
2017-06-20T15:54:18.192Z,30.00
2017-06-20T15:56:45.687Z,30.00
2017-06-20T15:59:13.166Z,30.10
2017-06-20T16:01:40.670Z,29.90
2017-06-20T16:04:08.164Z,29.90
2017-06-20T16:06:35.643Z,30.00
2017-06-20T16:09:03.907Z,30.80
2017-06-20T16:11:31.382Z,30.90
2017-06-20T16:13:59.639Z,30.70
2017-06-20T16:16:27.118Z,30.70
2017-06-20T16:18:54.642Z,31.00
2017-06-20T16:21:22.116Z,30.80
2017-06-20T16:23:50.370Z,30.80
2017-06-20T16:26:17.844Z,30.70
2017-06-20T16:28:46.103Z,30.70
2017-06-20T16:31:13.584Z,30.70
2017-06-20T16:33:41.078Z,30.60
2017-06-20T16:36:08.559Z,31.00
2017-06-20T16:38:36.059Z,31.20
2017-06-20T16:41:03.534Z,31.10
2017-06-20T16:43:31.019Z,30.90
2017-06-20T16:45:58.510Z,31.20
2017-06-20T16:48:25.994Z,31.40
2017-06-20T16:50:53.478Z,31.20
2017-06-20T16:53:20.959Z,31.40
2017-06-20T16:55:49.226Z,31.80
2017-06-20T16:58:17.469Z,32.40
2017-06-20T17:00:44.964Z,31.80
2017-06-20T17:03:13.203Z,31.20
2017-06-20T17:05:40.695Z,31.10
2017-06-20T17:08:08.932Z,31.40
2017-06-20T17:10:36.415Z,31.30
2017-06-20T17:13:04.675Z,31.50
2017-06-20T17:15:32.158Z,31.50
2017-06-20T17:17:59.659Z,31.20
2017-06-20T17:20:27.146Z,31.80
2017-06-20T17:22:55.402Z,32.00
2017-06-20T17:25:22.874Z,31.90
2017-06-20T17:27:51.134Z,32.90
2017-06-20T17:30:18.607Z,32.40
2017-06-20T17:32:46.866Z,31.70
2017-06-20T17:35:14.347Z,31.60
2017-06-20T17:37:41.839Z,31.20
2017-06-20T17:40:09.311Z,31.30
2017-06-20T17:42:36.812Z,31.60
2017-06-20T17:45:04.296Z,32.00
2017-06-20T17:47:31.774Z,32.00
2017-06-20T17:49:59.273Z,31.90
2017-06-20T17:52:26.760Z,32.50
2017-06-20T17:54:54.254Z,32.40
2017-06-20T17:57:21.730Z,32.90
2017-06-20T17:59:49.219Z,33.10
2017-06-20T18:02:16.695Z,33.40
2017-06-20T18:04:44.183Z,33.60
2017-06-20T18:07:12.430Z,34.30
2017-06-20T18:09:39.924Z,34.30
2017-06-20T18:12:08.163Z,34.30
2017-06-20T18:14:35.655Z,34.30
2017-06-20T18:17:03.134Z,34.30
2017-06-20T18:19:30.631Z,33.90
2017-06-20T18:21:58.098Z,33.60
2017-06-20T18:24:26.338Z,34.80
2017-06-20T18:26:53.865Z,34.70
2017-06-20T18:29:21.343Z,35.00
2017-06-20T18:31:48.830Z,35.10
2017-06-20T18:34:17.074Z,35.00
2017-06-20T18:36:44.642Z,35.00
2017-06-20T18:39:12.126Z,34.70
2017-06-20T18:41:40.410Z,34.50
2017-06-20T18:44:08.649Z,34.90
2017-06-20T18:46:36.138Z,34.90
2017-06-20T18:49:03.614Z,35.10
2017-06-20T18:51:31.103Z,35.80
2017-06-20T18:53:58.583Z,36.00
2017-06-20T18:56:26.066Z,36.20
2017-06-20T18:58:53.539Z,37.50
2017-06-20T19:01:21.039Z,39.30
2017-06-20T19:03:48.514Z,40.70
2017-06-20T19:06:15.988Z,41.90
2017-06-20T19:08:43.503Z,42.60
2017-06-20T19:11:10.993Z,43.80
2017-06-20T19:13:38.496Z,44.50
2017-06-20T19:16:05.970Z,45.20
2017-06-20T19:18:33.459Z,45.80
2017-06-20T19:21:00.941Z,46.10
2017-06-20T19:23:28.442Z,46.30
2017-06-20T19:25:56.688Z,47.40
2017-06-20T19:28:24.166Z,47.00
2017-06-20T19:30:52.427Z,47.90
2017-06-20T19:33:19.911Z,47.80
2017-06-20T19:35:47.408Z,48.10
2017-06-20T19:38:14.923Z,48.20
2017-06-20T19:40:42.428Z,48.40
2017-06-20T19:43:09.901Z,48.80
2017-06-20T19:45:37.396Z,49.00
2017-06-20T19:48:04.870Z,49.00
2017-06-20T19:50:32.366Z,49.30
2017-06-20T19:52:59.843Z,49.60
2017-06-20T19:55:28.130Z,49.80
2017-06-20T19:57:55.611Z,49.90
2017-06-20T20:00:23.110Z,50.30
2017-06-20T20:02:51.358Z,51.00
2017-06-20T20:05:18.839Z,50.70
2017-06-20T20:07:47.121Z,51.60
2017-06-20T20:10:15.367Z,51.50
2017-06-20T20:12:42.862Z,51.40
2017-06-20T20:15:10.330Z,51.50
2017-06-20T20:17:37.835Z,51.70
2017-06-20T20:20:05.332Z,51.70
2017-06-20T20:22:32.823Z,52.00
2017-06-20T20:25:00.303Z,52.20
2017-06-20T20:27:27.808Z,52.50
2017-06-20T20:29:55.288Z,52.80
2017-06-20T20:32:22.779Z,53.10
2017-06-20T20:34:51.030Z,53.70
2017-06-20T20:37:18.514Z,53.10
2017-06-20T20:39:46.775Z,53.80
2017-06-20T20:42:14.254Z,53.80
2017-06-20T20:44:41.754Z,54.10
2017-06-20T20:47:09.231Z,54.30
2017-06-20T20:49:36.726Z,54.70
2017-06-20T20:52:04.206Z,55.10
2017-06-20T20:54:31.702Z,55.50
2017-06-20T20:56:59.957Z,56.40
2017-06-20T20:59:27.446Z,56.10
2017-06-20T21:01:55.687Z,56.60
2017-06-20T21:04:23.186Z,56.60
2017-06-20T21:06:50.670Z,56.90
2017-06-20T21:09:18.174Z,57.20
2017-06-20T21:11:46.418Z,57.50
2017-06-20T21:14:13.920Z,57.50
2017-06-20T21:16:41.395Z,57.70
2017-06-20T21:19:08.883Z,57.90
2017-06-20T21:21:36.362Z,58.10
2017-06-20T21:24:03.842Z,58.50
2017-06-20T21:26:31.335Z,58.80
2017-06-20T21:28:58.831Z,59.00
2017-06-20T21:31:26.326Z,59.30
2017-06-20T21:33:53.809Z,59.60
2017-06-20T21:36:21.302Z,59.70
2017-06-20T21:38:49.555Z,60.20
2017-06-20T21:41:17.050Z,60.20
2017-06-20T21:43:44.539Z,60.40
2017-06-20T21:46:12.032Z,61.00
2017-06-20T21:48:40.276Z,61.40
2017-06-20T21:51:07.776Z,61.20
2017-06-20T21:53:35.251Z,61.40
2017-06-20T21:56:02.739Z,61.60
2017-06-20T21:58:30.246Z,61.40
2017-06-20T22:00:57.723Z,61.30
2017-06-20T22:03:25.232Z,61.50
2017-06-20T22:05:53.479Z,61.50
2017-06-20T22:08:20.977Z,61.50
2017-06-20T22:10:48.457Z,61.60
2017-06-20T22:13:15.957Z,61.80
2017-06-20T22:15:43.440Z,61.80
2017-06-20T22:18:10.934Z,61.70
2017-06-20T22:20:38.418Z,61.90
2017-06-20T22:23:05.895Z,61.80
2017-06-20T22:25:34.158Z,62.10
2017-06-20T22:28:01.632Z,62.10
2017-06-20T22:30:29.124Z,62.80
2017-06-20T22:32:56.607Z,62.30
2017-06-20T22:35:24.100Z,62.60
2017-06-20T22:37:51.618Z,62.30
2017-06-20T22:40:19.118Z,62.50
2017-06-20T22:42:46.590Z,62.40
2017-06-20T22:45:14.084Z,62.40
2017-06-20T22:47:41.554Z,62.30
2017-06-20T22:50:09.047Z,62.20
2017-06-20T22:52:36.527Z,62.20
2017-06-20T22:55:04.019Z,62.20
2017-06-20T22:57:32.263Z,62.20
2017-06-20T22:59:59.751Z,62.20
2017-06-20T23:02:27.986Z,62.20
2017-06-20T23:04:55.462Z,62.10
2017-06-20T23:07:22.950Z,62.20
2017-06-20T23:09:50.429Z,62.30
2017-06-20T23:12:17.919Z,62.40
2017-06-20T23:14:45.398Z,62.60
2017-06-20T23:17:13.654Z,62.90
2017-06-20T23:19:41.904Z,64.00
2017-06-20T23:22:09.429Z,63.10
2017-06-20T23:24:36.910Z,62.90
2017-06-20T23:27:04.411Z,62.80
2017-06-20T23:29:31.885Z,62.80
